sensor_id;sensor_type;location;lat;lon;timestamp;P1;durP1;ratioP1;P2;durP2;ratioP2
41229;SDS011;26964;50.428;19.218;2023-08-07T00:01:09;3.1;;;1.8;;
41229;SDS011;26964;50.428;19.218;2023-08-07T00:01:58;4.5;;;1.9;;
41229;SDS011;26964;50.428;19.218;2023-08-07T00:02:58;3.0;;;1.8;;
41229;SDS011;26964;50.428;19.218;2023-08-07T00:03:58;3.2;;;1.8;;
41229;SDS011;26964;50.428;19.218;2023-08-07T00:04:58;4.4;;;2.1;;
41229;SDS011;26964;50.428;19.218;2023-08-07T00:05:58;6.2;;;2.1;;
41229;SDS011;26964;50.428;19.218;2023-08-07T00:06:58;3.9;;;2.0;;
41229;SDS011;26964;50.428;19.218;2023-08-07T00:07:58;6.4;;;2.0;;
41229;SDS011;26964;50.428;19.218;2023-08-07T00:08:58;7.0;;;2.1;;
41229;SDS011;26964;50.428;19.218;2023-08-07T00:09:58;3.1;;;2.1;;
41229;SDS011;26964;50.428;19.218;2023-08-07T00:11:58;7.4;;;3.2;;
41229;SDS011;26964;50.428;19.218;2023-08-07T00:12:58;4.4;;;2.1;;
41229;SDS011;26964;50.428;19.218;2023-08-07T00:13:58;5.3;;;2.9;;
41229;SDS011;26964;50.428;19.218;2023-08-07T00:14:58;6.1;;;3.5;;
41229;SDS011;26964;50.428;19.218;2023-08-07T00:15:58;8.3;;;4.5;;
41229;SDS011;26964;50.428;19.218;2023-08-07T00:16:58;5.7;;;3.2;;
41229;SDS011;26964;50.428;19.218;2023-08-07T00:17:58;5.7;;;3.2;;
41229;SDS011;26964;50.428;19.218;2023-08-07T00:18:58;6.6;;;3.2;;
41229;SDS011;26964;50.428;19.218;2023-08-07T00:19:58;6.8;;;2.8;;
41229;SDS011;26964;50.428;19.218;2023-08-07T00:20:58;5.1;;;2.7;;
41229;SDS011;26964;50.428;19.218;2023-08-07T00:21:58;7.7;;;3.2;;
41229;SDS011;26964;50.428;19.218;2023-08-07T00:22:58;5.4;;;2.7;;
41229;SDS011;26964;50.428;19.218;2023-08-07T00:23:58;6.9;;;3.0;;
41229;SDS011;26964;50.428;19.218;2023-08-07T00:24:58;5.7;;;2.7;;
41229;SDS011;26964;50.428;19.218;2023-08-07T00:25:58;7.4;;;3.4;;
41229;SDS011;26964;50.428;19.218;2023-08-07T00:26:58;5.6;;;3.1;;
41229;SDS011;26964;50.428;19.218;2023-08-07T00:27:58;7.9;;;3.3;;
41229;SDS011;26964;50.428;19.218;2023-08-07T00:28:58;6.9;;;3.6;;
41229;SDS011;26964;50.428;19.218;2023-08-07T00:29:58;6.9;;;4.6;;
41229;SDS011;26964;50.428;19.218;2023-08-07T00:30:58;6.6;;;3.5;;
41229;SDS011;26964;50.428;19.218;2023-08-07T00:31:58;6.3;;;3.6;;
41229;SDS011;26964;50.428;19.218;2023-08-07T00:32:58;5.6;;;3.6;;
41229;SDS011;26964;50.428;19.218;2023-08-07T00:33:58;6.7;;;3.7;;
41229;SDS011;26964;50.428;19.218;2023-08-07T00:34:58;8.7;;;3.5;;
41229;SDS011;26964;50.428;19.218;2023-08-07T00:35:58;6.4;;;3.6;;
41229;SDS011;26964;50.428;19.218;2023-08-07T00:36:58;9.1;;;3.6;;
41229;SDS011;26964;50.428;19.218;2023-08-07T00:37:58;7.3;;;3.6;;
41229;SDS011;26964;50.428;19.218;2023-08-07T00:38:58;6.0;;;3.9;;
41229;SDS011;26964;50.428;19.218;2023-08-07T00:39:58;10.1;;;4.4;;
41229;SDS011;26964;50.428;19.218;2023-08-07T00:40:58;5.5;;;3.7;;
41229;SDS011;26964;50.428;19.218;2023-08-07T00:41:58;7.7;;;3.7;;
41229;SDS011;26964;50.428;19.218;2023-08-07T00:42:58;6.9;;;3.7;;
41229;SDS011;26964;50.428;19.218;2023-08-07T00:43:58;7.3;;;3.9;;
41229;SDS011;26964;50.428;19.218;2023-08-07T00:44:58;7.4;;;3.9;;
41229;SDS011;26964;50.428;19.218;2023-08-07T00:45:58;7.9;;;3.4;;
41229;SDS011;26964;50.428;19.218;2023-08-07T00:46:58;10.4;;;3.8;;
41229;SDS011;26964;50.428;19.218;2023-08-07T00:47:58;8.8;;;4.1;;
41229;SDS011;26964;50.428;19.218;2023-08-07T00:48:58;8.5;;;4.1;;
41229;SDS011;26964;50.428;19.218;2023-08-07T00:49:58;6.5;;;3.5;;
41229;SDS011;26964;50.428;19.218;2023-08-07T00:50:58;6.7;;;3.4;;
41229;SDS011;26964;50.428;19.218;2023-08-07T00:51:58;6.9;;;3.3;;
41229;SDS011;26964;50.428;19.218;2023-08-07T00:52:58;7.3;;;3.6;;
41229;SDS011;26964;50.428;19.218;2023-08-07T00:53:58;9.1;;;3.6;;
41229;SDS011;26964;50.428;19.218;2023-08-07T00:54:58;7.3;;;3.8;;
41229;SDS011;26964;50.428;19.218;2023-08-07T00:55:59;5.9;;;3.6;;
41229;SDS011;26964;50.428;19.218;2023-08-07T00:56:58;6.3;;;3.6;;
41229;SDS011;26964;50.428;19.218;2023-08-07T00:57:58;5.7;;;3.8;;
41229;SDS011;26964;50.428;19.218;2023-08-07T00:58:58;6.1;;;3.2;;
41229;SDS011;26964;50.428;19.218;2023-08-07T00:59:58;7.7;;;3.3;;
41229;SDS011;26964;50.428;19.218;2023-08-07T01:00:58;5.6;;;3.9;;
41229;SDS011;26964;50.428;19.218;2023-08-07T01:01:58;6.8;;;3.9;;
41229;SDS011;26964;50.428;19.218;2023-08-07T01:02:58;5.7;;;3.8;;
41229;SDS011;26964;50.428;19.218;2023-08-07T01:03:58;9.3;;;4.5;;
41229;SDS011;26964;50.428;19.218;2023-08-07T01:04:58;5.5;;;4.0;;
41229;SDS011;26964;50.428;19.218;2023-08-07T01:05:58;4.8;;;3.8;;
41229;SDS011;26964;50.428;19.218;2023-08-07T01:06:58;7.5;;;4.1;;
41229;SDS011;26964;50.428;19.218;2023-08-07T01:07:58;11.7;;;4.8;;
41229;SDS011;26964;50.428;19.218;2023-08-07T01:08:58;6.4;;;4.2;;
41229;SDS011;26964;50.428;19.218;2023-08-07T01:10:00;9.5;;;4.7;;
41229;SDS011;26964;50.428;19.218;2023-08-07T01:12:01;6.4;;;4.6;;
41229;SDS011;26964;50.428;19.218;2023-08-07T01:13:00;7.5;;;4.4;;
41229;SDS011;26964;50.428;19.218;2023-08-07T01:14:00;9.7;;;5.7;;
41229;SDS011;26964;50.428;19.218;2023-08-07T01:14:59;6.9;;;5.2;;
41229;SDS011;26964;50.428;19.218;2023-08-07T01:15:59;8.7;;;5.5;;
41229;SDS011;26964;50.428;19.218;2023-08-07T01:17:00;7.1;;;4.7;;
41229;SDS011;26964;50.428;19.218;2023-08-07T01:17:58;7.4;;;5.4;;
41229;SDS011;26964;50.428;19.218;2023-08-07T01:18:58;8.5;;;5.2;;
41229;SDS011;26964;50.428;19.218;2023-08-07T01:19:58;8.1;;;5.5;;
41229;SDS011;26964;50.428;19.218;2023-08-07T01:20:58;8.6;;;5.7;;
41229;SDS011;26964;50.428;19.218;2023-08-07T01:22:58;9.1;;;6.2;;
41229;SDS011;26964;50.428;19.218;2023-08-07T01:23:58;9.4;;;6.4;;
41229;SDS011;26964;50.428;19.218;2023-08-07T01:24:58;7.2;;;6.0;;
41229;SDS011;26964;50.428;19.218;2023-08-07T01:25:58;9.8;;;6.3;;
41229;SDS011;26964;50.428;19.218;2023-08-07T01:27:00;11.6;;;6.4;;
41229;SDS011;26964;50.428;19.218;2023-08-07T01:28:00;8.2;;;6.3;;
41229;SDS011;26964;50.428;19.218;2023-08-07T01:29:02;10.2;;;6.8;;
41229;SDS011;26964;50.428;19.218;2023-08-07T01:29:59;10.4;;;6.4;;
41229;SDS011;26964;50.428;19.218;2023-08-07T01:30:59;13.1;;;6.5;;
41229;SDS011;26964;50.428;19.218;2023-08-07T01:31:58;7.7;;;5.9;;
41229;SDS011;26964;50.428;19.218;2023-08-07T01:32:59;8.3;;;6.2;;
41229;SDS011;26964;50.428;19.218;2023-08-07T01:33:59;6.9;;;6.0;;
41229;SDS011;26964;50.428;19.218;2023-08-07T01:34:58;7.4;;;6.3;;
41229;SDS011;26964;50.428;19.218;2023-08-07T01:35:58;9.8;;;5.8;;
41229;SDS011;26964;50.428;19.218;2023-08-07T01:36:58;9.0;;;5.8;;
41229;SDS011;26964;50.428;19.218;2023-08-07T01:37:58;7.4;;;6.2;;
41229;SDS011;26964;50.428;19.218;2023-08-07T01:38:58;8.6;;;6.5;;
41229;SDS011;26964;50.428;19.218;2023-08-07T01:39:58;10.4;;;6.5;;
41229;SDS011;26964;50.428;19.218;2023-08-07T01:40:58;10.9;;;6.9;;
41229;SDS011;26964;50.428;19.218;2023-08-07T01:41:58;10.1;;;6.2;;
41229;SDS011;26964;50.428;19.218;2023-08-07T01:42:58;10.2;;;6.7;;
41229;SDS011;26964;50.428;19.218;2023-08-07T01:43:58;8.9;;;6.3;;
41229;SDS011;26964;50.428;19.218;2023-08-07T01:44:58;9.2;;;7.5;;
41229;SDS011;26964;50.428;19.218;2023-08-07T01:45:58;12.9;;;7.4;;
41229;SDS011;26964;50.428;19.218;2023-08-07T01:46:58;7.9;;;6.4;;
41229;SDS011;26964;50.428;19.218;2023-08-07T01:47:58;9.8;;;7.0;;
41229;SDS011;26964;50.428;19.218;2023-08-07T01:48:58;8.2;;;6.7;;
41229;SDS011;26964;50.428;19.218;2023-08-07T01:49:58;9.7;;;7.3;;
41229;SDS011;26964;50.428;19.218;2023-08-07T01:50:58;11.8;;;7.1;;
41229;SDS011;26964;50.428;19.218;2023-08-07T01:51:58;11.7;;;7.4;;
41229;SDS011;26964;50.428;19.218;2023-08-07T01:52:58;8.7;;;6.3;;
41229;SDS011;26964;50.428;19.218;2023-08-07T01:53:58;8.1;;;6.5;;
41229;SDS011;26964;50.428;19.218;2023-08-07T01:54:58;9.2;;;7.4;;
41229;SDS011;26964;50.428;19.218;2023-08-07T01:55:58;9.2;;;6.8;;
41229;SDS011;26964;50.428;19.218;2023-08-07T01:56:58;8.6;;;6.5;;
41229;SDS011;26964;50.428;19.218;2023-08-07T01:57:58;9.4;;;6.7;;
41229;SDS011;26964;50.428;19.218;2023-08-07T01:58:58;8.4;;;6.1;;
41229;SDS011;26964;50.428;19.218;2023-08-07T01:59:58;8.1;;;6.3;;
41229;SDS011;26964;50.428;19.218;2023-08-07T02:00:58;8.8;;;5.8;;
41229;SDS011;26964;50.428;19.218;2023-08-07T02:01:58;8.7;;;6.2;;
41229;SDS011;26964;50.428;19.218;2023-08-07T02:02:58;10.4;;;7.1;;
41229;SDS011;26964;50.428;19.218;2023-08-07T02:03:58;8.6;;;6.0;;
41229;SDS011;26964;50.428;19.218;2023-08-07T02:04:58;8.8;;;6.2;;
41229;SDS011;26964;50.428;19.218;2023-08-07T02:05:59;9.0;;;6.8;;
41229;SDS011;26964;50.428;19.218;2023-08-07T02:06:58;11.2;;;6.8;;
41229;SDS011;26964;50.428;19.218;2023-08-07T02:07:58;10.4;;;7.0;;
41229;SDS011;26964;50.428;19.218;2023-08-07T02:08:58;8.3;;;6.6;;
41229;SDS011;26964;50.428;19.218;2023-08-07T02:09:58;10.3;;;7.5;;
41229;SDS011;26964;50.428;19.218;2023-08-07T02:10:58;9.0;;;6.8;;
41229;SDS011;26964;50.428;19.218;2023-08-07T02:11:58;12.4;;;7.3;;
41229;SDS011;26964;50.428;19.218;2023-08-07T02:12:58;10.2;;;7.5;;
41229;SDS011;26964;50.428;19.218;2023-08-07T02:13:58;10.9;;;8.5;;
41229;SDS011;26964;50.428;19.218;2023-08-07T02:14:58;13.3;;;7.7;;
41229;SDS011;26964;50.428;19.218;2023-08-07T02:15:58;13.1;;;8.6;;
41229;SDS011;26964;50.428;19.218;2023-08-07T02:16:58;15.9;;;8.9;;
41229;SDS011;26964;50.428;19.218;2023-08-07T02:17:58;12.0;;;8.8;;
41229;SDS011;26964;50.428;19.218;2023-08-07T02:18:58;12.6;;;9.0;;
41229;SDS011;26964;50.428;19.218;2023-08-07T02:19:58;13.5;;;9.7;;
41229;SDS011;26964;50.428;19.218;2023-08-07T02:20:58;14.2;;;9.7;;
41229;SDS011;26964;50.428;19.218;2023-08-07T02:21:58;15.1;;;11.0;;
41229;SDS011;26964;50.428;19.218;2023-08-07T02:22:58;15.9;;;11.1;;
41229;SDS011;26964;50.428;19.218;2023-08-07T02:23:58;17.3;;;11.4;;
41229;SDS011;26964;50.428;19.218;2023-08-07T02:24:58;15.4;;;11.6;;
41229;SDS011;26964;50.428;19.218;2023-08-07T02:25:58;16.9;;;11.9;;
41229;SDS011;26964;50.428;19.218;2023-08-07T02:26:58;17.2;;;12.1;;
41229;SDS011;26964;50.428;19.218;2023-08-07T02:27:58;18.1;;;12.3;;
41229;SDS011;26964;50.428;19.218;2023-08-07T02:28:58;18.0;;;12.5;;
41229;SDS011;26964;50.428;19.218;2023-08-07T02:29:58;17.3;;;12.7;;
41229;SDS011;26964;50.428;19.218;2023-08-07T02:30:58;20.0;;;13.4;;
41229;SDS011;26964;50.428;19.218;2023-08-07T02:31:58;16.4;;;12.4;;
41229;SDS011;26964;50.428;19.218;2023-08-07T02:32:58;19.4;;;12.9;;
41229;SDS011;26964;50.428;19.218;2023-08-07T02:33:58;20.4;;;14.4;;
41229;SDS011;26964;50.428;19.218;2023-08-07T02:34:58;20.2;;;13.9;;
41229;SDS011;26964;50.428;19.218;2023-08-07T02:35:58;18.3;;;14.0;;
41229;SDS011;26964;50.428;19.218;2023-08-07T02:36:58;16.5;;;13.6;;
41229;SDS011;26964;50.428;19.218;2023-08-07T02:37:58;20.8;;;14.2;;
41229;SDS011;26964;50.428;19.218;2023-08-07T02:38:58;20.9;;;13.6;;
41229;SDS011;26964;50.428;19.218;2023-08-07T02:39:58;23.0;;;14.6;;
41229;SDS011;26964;50.428;19.218;2023-08-07T02:40:58;18.4;;;14.3;;
41229;SDS011;26964;50.428;19.218;2023-08-07T02:41:58;19.4;;;13.7;;
41229;SDS011;26964;50.428;19.218;2023-08-07T02:42:58;16.8;;;13.2;;
41229;SDS011;26964;50.428;19.218;2023-08-07T02:43:58;16.6;;;13.4;;
41229;SDS011;26964;50.428;19.218;2023-08-07T02:44:58;20.0;;;13.3;;
41229;SDS011;26964;50.428;19.218;2023-08-07T02:45:58;16.8;;;12.7;;
41229;SDS011;26964;50.428;19.218;2023-08-07T02:46:58;16.8;;;12.5;;
41229;SDS011;26964;50.428;19.218;2023-08-07T02:47:58;16.7;;;13.4;;
41229;SDS011;26964;50.428;19.218;2023-08-07T02:48:58;17.7;;;13.3;;
41229;SDS011;26964;50.428;19.218;2023-08-07T02:49:58;19.4;;;13.0;;
41229;SDS011;26964;50.428;19.218;2023-08-07T02:50:58;17.5;;;12.8;;
41229;SDS011;26964;50.428;19.218;2023-08-07T02:51:58;16.0;;;12.5;;
41229;SDS011;26964;50.428;19.218;2023-08-07T02:52:58;15.8;;;12.0;;
41229;SDS011;26964;50.428;19.218;2023-08-07T02:53:58;14.6;;;12.6;;
41229;SDS011;26964;50.428;19.218;2023-08-07T02:54:58;15.2;;;11.9;;
41229;SDS011;26964;50.428;19.218;2023-08-07T02:55:58;15.4;;;12.0;;
41229;SDS011;26964;50.428;19.218;2023-08-07T02:56:58;15.9;;;10.9;;
41229;SDS011;26964;50.428;19.218;2023-08-07T02:57:58;13.3;;;10.6;;
41229;SDS011;26964;50.428;19.218;2023-08-07T02:58:58;14.1;;;11.1;;
41229;SDS011;26964;50.428;19.218;2023-08-07T02:59:58;13.5;;;10.8;;
41229;SDS011;26964;50.428;19.218;2023-08-07T03:01:58;17.1;;;10.6;;
41229;SDS011;26964;50.428;19.218;2023-08-07T03:02:58;15.1;;;10.8;;
41229;SDS011;26964;50.428;19.218;2023-08-07T03:03:58;10.9;;;9.2;;
41229;SDS011;26964;50.428;19.218;2023-08-07T03:04:58;11.6;;;9.8;;
41229;SDS011;26964;50.428;19.218;2023-08-07T03:05:58;12.2;;;9.4;;
41229;SDS011;26964;50.428;19.218;2023-08-07T03:06:58;11.6;;;9.9;;
41229;SDS011;26964;50.428;19.218;2023-08-07T03:07:58;12.0;;;9.0;;
41229;SDS011;26964;50.428;19.218;2023-08-07T03:08:58;13.5;;;9.4;;
41229;SDS011;26964;50.428;19.218;2023-08-07T03:09:58;11.5;;;9.5;;
41229;SDS011;26964;50.428;19.218;2023-08-07T03:10:58;11.0;;;8.9;;
41229;SDS011;26964;50.428;19.218;2023-08-07T03:11:58;10.3;;;8.2;;
41229;SDS011;26964;50.428;19.218;2023-08-07T03:12:58;11.5;;;8.8;;
41229;SDS011;26964;50.428;19.218;2023-08-07T03:13:58;9.9;;;8.1;;
41229;SDS011;26964;50.428;19.218;2023-08-07T03:14:58;9.5;;;7.8;;
41229;SDS011;26964;50.428;19.218;2023-08-07T03:15:58;12.0;;;8.6;;
41229;SDS011;26964;50.428;19.218;2023-08-07T03:16:58;10.3;;;8.7;;
41229;SDS011;26964;50.428;19.218;2023-08-07T03:17:58;10.1;;;8.1;;
41229;SDS011;26964;50.428;19.218;2023-08-07T03:18:58;12.0;;;8.8;;
41229;SDS011;26964;50.428;19.218;2023-08-07T03:19:58;9.2;;;8.2;;
41229;SDS011;26964;50.428;19.218;2023-08-07T03:20:58;12.3;;;9.5;;
41229;SDS011;26964;50.428;19.218;2023-08-07T03:21:58;10.6;;;9.3;;
41229;SDS011;26964;50.428;19.218;2023-08-07T03:22:58;11.7;;;10.5;;
41229;SDS011;26964;50.428;19.218;2023-08-07T03:23:58;11.8;;;9.6;;
41229;SDS011;26964;50.428;19.218;2023-08-07T03:24:58;13.0;;;11.0;;
41229;SDS011;26964;50.428;19.218;2023-08-07T03:26:58;16.4;;;12.4;;
41229;SDS011;26964;50.428;19.218;2023-08-07T03:27:58;15.2;;;13.2;;
41229;SDS011;26964;50.428;19.218;2023-08-07T03:28:58;15.8;;;12.3;;
41229;SDS011;26964;50.428;19.218;2023-08-07T03:29:58;17.3;;;12.6;;
41229;SDS011;26964;50.428;19.218;2023-08-07T03:30:58;20.4;;;13.0;;
41229;SDS011;26964;50.428;19.218;2023-08-07T03:31:58;19.1;;;13.5;;
41229;SDS011;26964;50.428;19.218;2023-08-07T03:32:58;17.0;;;12.6;;
41229;SDS011;26964;50.428;19.218;2023-08-07T03:33:58;17.9;;;14.0;;
41229;SDS011;26964;50.428;19.218;2023-08-07T03:34:58;17.9;;;14.4;;
41229;SDS011;26964;50.428;19.218;2023-08-07T03:35:58;16.1;;;13.9;;
41229;SDS011;26964;50.428;19.218;2023-08-07T03:36:58;19.1;;;15.0;;
41229;SDS011;26964;50.428;19.218;2023-08-07T03:37:58;20.2;;;15.8;;
41229;SDS011;26964;50.428;19.218;2023-08-07T03:38:58;19.5;;;16.6;;
41229;SDS011;26964;50.428;19.218;2023-08-07T03:39:58;22.8;;;16.6;;
41229;SDS011;26964;50.428;19.218;2023-08-07T03:40:58;19.7;;;15.9;;
41229;SDS011;26964;50.428;19.218;2023-08-07T03:41:58;18.3;;;15.2;;
41229;SDS011;26964;50.428;19.218;2023-08-07T03:42:58;21.9;;;16.7;;
41229;SDS011;26964;50.428;19.218;2023-08-07T03:43:58;21.8;;;17.2;;
41229;SDS011;26964;50.428;19.218;2023-08-07T03:44:58;20.4;;;17.0;;
41229;SDS011;26964;50.428;19.218;2023-08-07T03:45:58;20.4;;;16.5;;
41229;SDS011;26964;50.428;19.218;2023-08-07T03:46:58;21.9;;;17.2;;
41229;SDS011;26964;50.428;19.218;2023-08-07T03:48:58;18.0;;;16.0;;
41229;SDS011;26964;50.428;19.218;2023-08-07T03:49:58;20.6;;;15.9;;
41229;SDS011;26964;50.428;19.218;2023-08-07T03:51:58;21.2;;;16.0;;
41229;SDS011;26964;50.428;19.218;2023-08-07T03:52:58;23.1;;;15.8;;
41229;SDS011;26964;50.428;19.218;2023-08-07T03:53:58;19.7;;;15.8;;
41229;SDS011;26964;50.428;19.218;2023-08-07T03:54:58;17.9;;;15.7;;
41229;SDS011;26964;50.428;19.218;2023-08-07T03:55:58;19.1;;;15.3;;
41229;SDS011;26964;50.428;19.218;2023-08-07T03:56:58;19.4;;;15.4;;
41229;SDS011;26964;50.428;19.218;2023-08-07T03:57:58;17.5;;;14.7;;
41229;SDS011;26964;50.428;19.218;2023-08-07T03:58:58;17.0;;;13.3;;
41229;SDS011;26964;50.428;19.218;2023-08-07T03:59:58;17.2;;;14.8;;
41229;SDS011;26964;50.428;19.218;2023-08-07T04:00:58;16.5;;;14.4;;
41229;SDS011;26964;50.428;19.218;2023-08-07T04:01:58;18.1;;;14.2;;
41229;SDS011;26964;50.428;19.218;2023-08-07T04:02:58;18.7;;;14.3;;
41229;SDS011;26964;50.428;19.218;2023-08-07T04:03:58;24.6;;;13.2;;
41229;SDS011;26964;50.428;19.218;2023-08-07T04:04:58;14.9;;;12.3;;
41229;SDS011;26964;50.428;19.218;2023-08-07T04:05:58;14.1;;;12.6;;
41229;SDS011;26964;50.428;19.218;2023-08-07T04:06:58;13.5;;;11.1;;
41229;SDS011;26964;50.428;19.218;2023-08-07T04:07:58;14.2;;;12.0;;
41229;SDS011;26964;50.428;19.218;2023-08-07T04:08:58;14.0;;;11.6;;
41229;SDS011;26964;50.428;19.218;2023-08-07T04:09:58;14.6;;;12.1;;
41229;SDS011;26964;50.428;19.218;2023-08-07T04:10:58;12.5;;;10.9;;
41229;SDS011;26964;50.428;19.218;2023-08-07T04:11:58;13.9;;;11.1;;
41229;SDS011;26964;50.428;19.218;2023-08-07T04:12:58;12.9;;;11.0;;
41229;SDS011;26964;50.428;19.218;2023-08-07T04:13:58;12.7;;;10.6;;
41229;SDS011;26964;50.428;19.218;2023-08-07T04:14:58;12.1;;;10.5;;
41229;SDS011;26964;50.428;19.218;2023-08-07T04:15:58;11.8;;;10.3;;
41229;SDS011;26964;50.428;19.218;2023-08-07T04:16:58;11.5;;;10.1;;
41229;SDS011;26964;50.428;19.218;2023-08-07T04:17:58;14.3;;;9.9;;
41229;SDS011;26964;50.428;19.218;2023-08-07T04:18:58;9.8;;;8.8;;
41229;SDS011;26964;50.428;19.218;2023-08-07T04:19:58;9.6;;;8.6;;
41229;SDS011;26964;50.428;19.218;2023-08-07T04:20:58;11.6;;;8.6;;
41229;SDS011;26964;50.428;19.218;2023-08-07T04:21:58;9.5;;;8.3;;
41229;SDS011;26964;50.428;19.218;2023-08-07T04:22:58;9.7;;;8.1;;
41229;SDS011;26964;50.428;19.218;2023-08-07T04:23:58;10.0;;;7.2;;
41229;SDS011;26964;50.428;19.218;2023-08-07T04:24:58;10.0;;;7.7;;
41229;SDS011;26964;50.428;19.218;2023-08-07T04:25:58;8.4;;;7.1;;
41229;SDS011;26964;50.428;19.218;2023-08-07T04:26:58;10.3;;;7.2;;
41229;SDS011;26964;50.428;19.218;2023-08-07T04:27:58;10.2;;;6.9;;
41229;SDS011;26964;50.428;19.218;2023-08-07T04:28:58;12.2;;;7.3;;
41229;SDS011;26964;50.428;19.218;2023-08-07T04:29:58;9.9;;;7.1;;
41229;SDS011;26964;50.428;19.218;2023-08-07T04:30:58;9.5;;;7.1;;
41229;SDS011;26964;50.428;19.218;2023-08-07T04:31:58;8.6;;;6.5;;
41229;SDS011;26964;50.428;19.218;2023-08-07T04:32:58;7.1;;;6.4;;
41229;SDS011;26964;50.428;19.218;2023-08-07T04:33:58;7.8;;;7.0;;
41229;SDS011;26964;50.428;19.218;2023-08-07T04:34:58;10.5;;;6.9;;
41229;SDS011;26964;50.428;19.218;2023-08-07T04:35:58;9.7;;;7.0;;
41229;SDS011;26964;50.428;19.218;2023-08-07T04:36:58;11.0;;;6.3;;
41229;SDS011;26964;50.428;19.218;2023-08-07T04:37:58;8.8;;;6.9;;
41229;SDS011;26964;50.428;19.218;2023-08-07T04:38:58;9.7;;;7.1;;
41229;SDS011;26964;50.428;19.218;2023-08-07T04:39:58;9.0;;;6.7;;
41229;SDS011;26964;50.428;19.218;2023-08-07T04:40:58;10.6;;;6.9;;
41229;SDS011;26964;50.428;19.218;2023-08-07T04:41:58;8.1;;;7.2;;
41229;SDS011;26964;50.428;19.218;2023-08-07T04:42:58;9.4;;;7.2;;
41229;SDS011;26964;50.428;19.218;2023-08-07T04:43:58;9.1;;;8.2;;
41229;SDS011;26964;50.428;19.218;2023-08-07T04:44:58;10.0;;;7.7;;
41229;SDS011;26964;50.428;19.218;2023-08-07T04:45:58;8.4;;;7.2;;
41229;SDS011;26964;50.428;19.218;2023-08-07T04:46:58;8.1;;;7.3;;
41229;SDS011;26964;50.428;19.218;2023-08-07T04:47:58;8.4;;;7.1;;
41229;SDS011;26964;50.428;19.218;2023-08-07T04:48:58;8.9;;;7.6;;
41229;SDS011;26964;50.428;19.218;2023-08-07T04:49:58;10.9;;;8.1;;
41229;SDS011;26964;50.428;19.218;2023-08-07T04:50:58;10.1;;;7.7;;
41229;SDS011;26964;50.428;19.218;2023-08-07T04:51:58;9.9;;;8.0;;
41229;SDS011;26964;50.428;19.218;2023-08-07T04:52:58;8.9;;;7.6;;
41229;SDS011;26964;50.428;19.218;2023-08-07T04:53:58;8.9;;;7.9;;
41229;SDS011;26964;50.428;19.218;2023-08-07T04:54:58;9.4;;;7.5;;
41229;SDS011;26964;50.428;19.218;2023-08-07T04:55:59;10.2;;;7.7;;
41229;SDS011;26964;50.428;19.218;2023-08-07T04:56:58;8.7;;;6.8;;
41229;SDS011;26964;50.428;19.218;2023-08-07T04:57:58;8.7;;;7.4;;
41229;SDS011;26964;50.428;19.218;2023-08-07T04:58:58;8.5;;;7.3;;
41229;SDS011;26964;50.428;19.218;2023-08-07T04:59:58;10.7;;;7.5;;
41229;SDS011;26964;50.428;19.218;2023-08-07T05:00:58;10.5;;;7.4;;
41229;SDS011;26964;50.428;19.218;2023-08-07T05:01:58;11.2;;;8.0;;
41229;SDS011;26964;50.428;19.218;2023-08-07T05:02:58;7.7;;;6.9;;
41229;SDS011;26964;50.428;19.218;2023-08-07T05:03:58;8.1;;;6.9;;
41229;SDS011;26964;50.428;19.218;2023-08-07T05:04:58;9.0;;;7.3;;
41229;SDS011;26964;50.428;19.218;2023-08-07T05:05:58;6.9;;;6.2;;
41229;SDS011;26964;50.428;19.218;2023-08-07T05:06:58;9.1;;;7.0;;
41229;SDS011;26964;50.428;19.218;2023-08-07T05:07:58;7.3;;;6.1;;
41229;SDS011;26964;50.428;19.218;2023-08-07T05:08:58;7.9;;;6.3;;
41229;SDS011;26964;50.428;19.218;2023-08-07T05:09:58;9.1;;;6.1;;
41229;SDS011;26964;50.428;19.218;2023-08-07T05:10:58;8.2;;;5.8;;
41229;SDS011;26964;50.428;19.218;2023-08-07T05:11:58;6.1;;;5.1;;
41229;SDS011;26964;50.428;19.218;2023-08-07T05:12:58;5.5;;;4.8;;
41229;SDS011;26964;50.428;19.218;2023-08-07T05:13:58;5.2;;;4.7;;
41229;SDS011;26964;50.428;19.218;2023-08-07T05:14:58;6.2;;;4.6;;
41229;SDS011;26964;50.428;19.218;2023-08-07T05:15:58;6.8;;;4.5;;
41229;SDS011;26964;50.428;19.218;2023-08-07T05:16:58;8.2;;;4.5;;
41229;SDS011;26964;50.428;19.218;2023-08-07T05:17:58;8.9;;;4.4;;
41229;SDS011;26964;50.428;19.218;2023-08-07T05:18:58;7.1;;;4.2;;
41229;SDS011;26964;50.428;19.218;2023-08-07T05:19:58;5.9;;;4.0;;
41229;SDS011;26964;50.428;19.218;2023-08-07T05:20:58;6.8;;;3.9;;
41229;SDS011;26964;50.428;19.218;2023-08-07T05:21:58;10.2;;;4.0;;
41229;SDS011;26964;50.428;19.218;2023-08-07T05:22:58;4.9;;;3.8;;
41229;SDS011;26964;50.428;19.218;2023-08-07T05:23:58;6.8;;;3.5;;
41229;SDS011;26964;50.428;19.218;2023-08-07T05:24:58;10.8;;;3.8;;
41229;SDS011;26964;50.428;19.218;2023-08-07T05:25:58;11.3;;;4.3;;
41229;SDS011;26964;50.428;19.218;2023-08-07T05:26:58;6.6;;;3.5;;
41229;SDS011;26964;50.428;19.218;2023-08-07T05:27:58;7.8;;;3.2;;
41229;SDS011;26964;50.428;19.218;2023-08-07T05:28:58;5.9;;;3.2;;
41229;SDS011;26964;50.428;19.218;2023-08-07T05:29:59;6.6;;;2.7;;
41229;SDS011;26964;50.428;19.218;2023-08-07T05:30:58;3.6;;;2.7;;
41229;SDS011;26964;50.428;19.218;2023-08-07T05:31:58;4.0;;;3.0;;
41229;SDS011;26964;50.428;19.218;2023-08-07T05:32:58;4.0;;;2.6;;
41229;SDS011;26964;50.428;19.218;2023-08-07T05:33:58;4.0;;;2.5;;
41229;SDS011;26964;50.428;19.218;2023-08-07T05:34:58;4.0;;;2.5;;
41229;SDS011;26964;50.428;19.218;2023-08-07T05:35:58;3.9;;;2.6;;
41229;SDS011;26964;50.428;19.218;2023-08-07T05:36:58;3.8;;;2.4;;
41229;SDS011;26964;50.428;19.218;2023-08-07T05:37:58;3.6;;;2.5;;
41229;SDS011;26964;50.428;19.218;2023-08-07T05:38:58;5.4;;;2.9;;
41229;SDS011;26964;50.428;19.218;2023-08-07T05:39:58;3.4;;;2.4;;
41229;SDS011;26964;50.428;19.218;2023-08-07T05:40:58;5.5;;;2.5;;
41229;SDS011;26964;50.428;19.218;2023-08-07T05:41:58;6.9;;;2.8;;
41229;SDS011;26964;50.428;19.218;2023-08-07T05:42:58;4.5;;;2.3;;
41229;SDS011;26964;50.428;19.218;2023-08-07T05:43:58;9.1;;;3.1;;
41229;SDS011;26964;50.428;19.218;2023-08-07T05:44:58;3.0;;;2.2;;
41229;SDS011;26964;50.428;19.218;2023-08-07T05:45:58;5.4;;;2.1;;
41229;SDS011;26964;50.428;19.218;2023-08-07T05:46:58;3.5;;;2.5;;
41229;SDS011;26964;50.428;19.218;2023-08-07T05:47:58;3.2;;;2.2;;
41229;SDS011;26964;50.428;19.218;2023-08-07T05:48:58;11.2;;;2.5;;
41229;SDS011;26964;50.428;19.218;2023-08-07T05:49:58;2.6;;;2.2;;
41229;SDS011;26964;50.428;19.218;2023-08-07T05:50:58;4.7;;;2.3;;
41229;SDS011;26964;50.428;19.218;2023-08-07T05:51:58;2.5;;;1.9;;
41229;SDS011;26964;50.428;19.218;2023-08-07T05:52:58;3.7;;;2.3;;
41229;SDS011;26964;50.428;19.218;2023-08-07T05:53:58;3.0;;;1.9;;
41229;SDS011;26964;50.428;19.218;2023-08-07T05:54:58;3.9;;;2.2;;
41229;SDS011;26964;50.428;19.218;2023-08-07T05:55:58;2.3;;;1.7;;
41229;SDS011;26964;50.428;19.218;2023-08-07T05:56:58;3.3;;;1.9;;
41229;SDS011;26964;50.428;19.218;2023-08-07T05:57:57;3.8;;;2.0;;
41229;SDS011;26964;50.428;19.218;2023-08-07T05:58:58;5.9;;;2.2;;
41229;SDS011;26964;50.428;19.218;2023-08-07T05:59:58;5.6;;;2.1;;
41229;SDS011;26964;50.428;19.218;2023-08-07T06:00:58;2.5;;;1.9;;
41229;SDS011;26964;50.428;19.218;2023-08-07T06:01:58;2.4;;;1.9;;
41229;SDS011;26964;50.428;19.218;2023-08-07T06:02:58;4.8;;;3.2;;
41229;SDS011;26964;50.428;19.218;2023-08-07T06:03:57;5.1;;;4.0;;
41229;SDS011;26964;50.428;19.218;2023-08-07T06:04:58;5.1;;;3.7;;
41229;SDS011;26964;50.428;19.218;2023-08-07T06:05:58;5.3;;;3.5;;
41229;SDS011;26964;50.428;19.218;2023-08-07T06:06:57;5.0;;;3.0;;
41229;SDS011;26964;50.428;19.218;2023-08-07T06:07:58;4.4;;;2.6;;
41229;SDS011;26964;50.428;19.218;2023-08-07T06:08:58;3.3;;;2.5;;
41229;SDS011;26964;50.428;19.218;2023-08-07T06:09:57;4.9;;;3.4;;
41229;SDS011;26964;50.428;19.218;2023-08-07T06:10:58;3.4;;;2.4;;